Time;durP1;ratioP1;P1;durP2;ratioP2;P2;SDS_P1;SDS_P2;PMS_P1;PMS_P2;Temp;Humidity;BMP_temperature;BMP_pressure;BME280_temperature;BME280_humidity;BME280_pressure;Samples;Min_cycle;Max_cycle;Signal;HPM_P1;HPM_P2
2024/04/10 00:00:42;;;;;;;9.68;6.43;;;;;;;;;;5405141;26;20028;-73
2024/04/10 00:03:22;;;;;;;9.13;6.72;;;;;;;;;;5405075;26;19995;-73
2024/04/10 00:06:05;;;;;;;12.70;6.68;;;;;;;;;;5404650;26;20020;-75
2024/04/10 00:08:37;;;;;;;9.20;6.57;;;;;;;;;;5408780;26;20023;-74
2024/04/10 00:11:31;;;;;;;;;;;;;;;;;;;;;
2024/04/10 00:14:16;;;;;;;8.95;6.38;;;;;;;;;;5405023;26;20517;-74
2024/04/10 00:16:50;;;;;;;12.30;6.40;;;;;;;;;;5406661;26;20460;-74
2024/04/10 00:19:22;;;;;;;10.13;5.97;;;;;;;;;;5406855;26;20028;-74
2024/04/10 00:21:55;;;;;;;8.77;6.43;;;;;;;;;;5407223;26;20024;-73
2024/04/10 00:24:26;;;;;;;9.90;6.07;;;;;;;;;;5407662;26;20024;-74
2024/04/10 00:27:26;;;;;;;8.48;6.57;;;;;;;;;;5382425;26;20039;-74
2024/04/10 00:30:11;;;;;;;10.77;6.40;;;;;;;;;;5409278;26;20477;-75
2024/04/10 00:33:09;;;;;;;9.80;5.60;;;;;;;;;;5383544;26;20846;-75
2024/04/10 00:35:43;;;;;;;12.00;6.22;;;;;;;;;;5423492;26;20042;-74
2024/04/10 00:38:17;;;;;;;11.38;6.47;;;;;;;;;;5380595;26;20010;-74
2024/04/10 00:40:59;;;;;;;9.80;6.55;;;;;;;;;;5399158;26;20027;-74
2024/04/10 00:43:31;;;;;;;9.80;6.13;;;;;;;;;;5415413;26;20464;-74
2024/04/10 00:46:13;;;;;;;13.07;6.85;;;;;;;;;;5442119;26;20035;-74
2024/04/10 00:48:51;;;;;;;9.68;6.90;;;;;;;;;;5432692;26;20030;-73
2024/04/10 00:51:26;;;;;;;10.65;5.97;;;;;;;;;;5411431;26;20039;-74
2024/04/10 00:53:56;;;;;;;6.50;5.45;;;;;;;;;;5407159;26;20027;-73
2024/04/10 00:56:27;;;;;;;7.70;5.57;;;;;;;;;;5427711;26;20032;-74
2024/04/10 00:59:00;;;;;;;9.48;5.40;;;;;;;;;;5402570;26;20341;-74
2024/04/10 01:01:32;;;;;;;5.72;4.00;;;;;;;;;;5402871;26;20000;-74
2024/04/10 01:04:03;;;;;;;5.65;3.90;;;;;;;;;;5404362;26;20010;-73
2024/04/10 01:06:35;;;;;;;5.72;4.30;;;;;;;;;;5406774;26;20027;-72
2024/04/10 01:09:05;;;;;;;9.68;4.40;;;;;;;;;;5407015;26;20035;-72
2024/04/10 01:11:36;;;;;;;9.90;4.50;;;;;;;;;;5406621;26;20055;-73
2024/04/10 01:14:06;;;;;;;5.88;4.25;;;;;;;;;;5405747;26;20616;-72
2024/04/10 01:16:37;;;;;;;7.78;4.32;;;;;;;;;;5406415;26;20051;-73
2024/04/10 01:19:08;;;;;;;5.75;3.47;;;;;;;;;;5406476;26;20023;-74
2024/04/10 01:21:39;;;;;;;6.28;3.50;;;;;;;;;;5406995;26;20024;-73
2024/04/10 01:24:09;;;;;;;5.10;3.53;;;;;;;;;;5404958;26;20000;-74
2024/04/10 01:26:40;;;;;;;6.65;3.33;;;;;;;;;;5404927;26;20019;-73
2024/04/10 01:29:12;;;;;;;4.90;3.42;;;;;;;;;;5407666;26;20086;-74
2024/04/10 01:31:42;;;;;;;6.72;3.20;;;;;;;;;;5406452;26;20039;-74
2024/04/10 01:34:13;;;;;;;6.60;3.13;;;;;;;;;;5405354;26;20467;-75
2024/04/10 01:36:44;;;;;;;4.95;2.72;;;;;;;;;;5406897;26;20027;-75
2024/04/10 01:39:16;;;;;;;5.85;3.22;;;;;;;;;;5406953;26;20032;-75
2024/04/10 01:41:47;;;;;;;4.78;3.13;;;;;;;;;;5406617;26;20023;-74
2024/04/10 01:44:17;;;;;;;4.95;3.10;;;;;;;;;;5406020;26;20023;-74
2024/04/10 01:46:47;;;;;;;4.88;2.67;;;;;;;;;;5405677;26;20031;-74
2024/04/10 01:49:18;;;;;;;4.50;3.20;;;;;;;;;;5404903;26;20020;-74
2024/04/10 01:51:50;;;;;;;8.40;3.67;;;;;;;;;;5405283;26;20027;-74
2024/04/10 01:54:20;;;;;;;4.75;3.45;;;;;;;;;;5405903;26;20628;-74
2024/04/10 01:56:50;;;;;;;6.93;3.20;;;;;;;;;;5405673;26;20647;-74
2024/04/10 01:59:21;;;;;;;4.45;3.78;;;;;;;;;;5405738;26;20031;-76
2024/04/10 02:01:52;;;;;;;5.47;3.70;;;;;;;;;;5405817;26;20020;-75
2024/04/10 02:04:22;;;;;;;6.30;3.60;;;;;;;;;;5406391;26;20024;-75
2024/04/10 02:06:53;;;;;;;5.57;3.40;;;;;;;;;;5405355;26;20048;-74
2024/04/10 02:09:25;;;;;;;5.05;3.70;;;;;;;;;;5405771;26;20035;-73
2024/04/10 02:11:57;;;;;;;5.80;3.40;;;;;;;;;;5405533;26;20023;-74
2024/04/10 02:14:30;;;;;;;7.03;3.08;;;;;;;;;;5405208;26;20027;-73
2024/04/10 02:17:01;;;;;;;5.72;3.22;;;;;;;;;;5405916;26;20051;-74
2024/04/10 02:19:31;;;;;;;4.15;3.05;;;;;;;;;;5407061;26;20039;-74
2024/04/10 02:22:05;;;;;;;7.05;3.15;;;;;;;;;;5404362;26;20019;-75
2024/04/10 02:24:38;;;;;;;5.68;3.08;;;;;;;;;;5405601;26;20006;-74
2024/04/10 02:27:09;;;;;;;3.80;2.70;;;;;;;;;;5405860;26;20031;-75
2024/04/10 02:29:39;;;;;;;4.13;2.72;;;;;;;;;;5406463;26;20475;-74
2024/04/10 02:32:10;;;;;;;5.03;2.33;;;;;;;;;;5407482;26;20511;-75
2024/04/10 02:34:41;;;;;;;4.13;2.60;;;;;;;;;;5405473;26;20103;-74
2024/04/10 02:37:12;;;;;;;4.22;2.53;;;;;;;;;;5405300;26;20043;-75
2024/04/10 02:39:42;;;;;;;2.75;2.22;;;;;;;;;;5406325;26;20027;-74
2024/04/10 02:42:12;;;;;;;4.57;2.63;;;;;;;;;;5404907;26;20020;-75
2024/04/10 02:44:50;;;;;;;4.78;2.38;;;;;;;;;;5403471;26;20000;-73
2024/04/10 02:47:21;;;;;;;3.28;2.80;;;;;;;;;;5405872;26;20597;-74
2024/04/10 02:49:53;;;;;;;3.38;2.97;;;;;;;;;;5404847;26;20035;-73
2024/04/10 02:52:23;;;;;;;8.07;3.05;;;;;;;;;;5405124;26;20031;-74
2024/04/10 02:54:54;;;;;;;7.68;2.72;;;;;;;;;;5405574;26;20032;-73
2024/04/10 02:57:25;;;;;;;2.75;2.40;;;;;;;;;;5405657;26;20031;-75
2024/04/10 02:59:55;;;;;;;4.60;2.25;;;;;;;;;;5404056;26;20043;-73
2024/04/10 03:02:25;;;;;;;4.07;2.47;;;;;;;;;;5404778;26;20044;-74
2024/04/10 03:04:56;;;;;;;5.03;2.55;;;;;;;;;;5405257;26;19995;-73
2024/04/10 03:07:27;;;;;;;3.88;3.13;;;;;;;;;;5405122;26;20447;-74
2024/04/10 03:09:59;;;;;;;6.00;3.50;;;;;;;;;;5405028;26;20027;-73
2024/04/10 03:12:29;;;;;;;6.00;3.33;;;;;;;;;;5405099;26;20020;-74
2024/04/10 03:14:59;;;;;;;3.78;2.97;;;;;;;;;;5403329;26;20028;-75
2024/04/10 03:17:31;;;;;;;4.35;2.92;;;;;;;;;;5404956;26;20503;-74
2024/04/10 03:20:02;;;;;;;7.90;3.55;;;;;;;;;;5403528;26;20024;-74
2024/04/10 03:22:32;;;;;;;5.07;3.65;;;;;;;;;;5405029;26;20023;-73
2024/04/10 03:25:03;;;;;;;6.05;3.75;;;;;;;;;;5403242;26;20115;-74
2024/04/10 03:27:34;;;;;;;8.45;3.80;;;;;;;;;;5404654;26;20031;-74
2024/04/10 03:30:07;;;;;;;6.85;3.75;;;;;;;;;;5404188;26;20115;-73
2024/04/10 03:32:38;;;;;;;9.35;4.05;;;;;;;;;;5404466;26;20047;-73
2024/04/10 03:35:09;;;;;;;7.75;4.18;;;;;;;;;;5407586;26;20019;-75
2024/04/10 03:37:40;;;;;;;7.32;4.68;;;;;;;;;;5408319;26;20023;-74
2024/04/10 03:40:11;;;;;;;8.25;4.93;;;;;;;;;;5408118;26;20027;-74
2024/04/10 03:42:42;;;;;;;10.85;4.90;;;;;;;;;;5405938;26;20005;-73
2024/04/10 03:45:15;;;;;;;7.07;4.70;;;;;;;;;;5407832;26;20043;-74
2024/04/10 03:47:46;;;;;;;7.15;5.22;;;;;;;;;;5407557;26;20039;-74
2024/04/10 03:50:17;;;;;;;7.18;5.18;;;;;;;;;;5408214;26;20036;-74
2024/04/10 03:52:48;;;;;;;8.65;5.30;;;;;;;;;;5408587;26;20458;-74
2024/04/10 03:55:21;;;;;;;10.48;5.97;;;;;;;;;;5408218;26;20035;-73
2024/04/10 03:57:52;;;;;;;11.88;5.95;;;;;;;;;;5407710;26;20077;-74
2024/04/10 04:00:28;;;;;;;8.82;6.65;;;;;;;;;;5409236;26;20031;-74
2024/04/10 04:02:59;;;;;;;10.07;6.93;;;;;;;;;;5407719;26;20019;-73
2024/04/10 04:05:30;;;;;;;11.77;6.43;;;;;;;;;;5407212;26;20027;-74
2024/04/10 04:08:00;;;;;;;8.50;5.85;;;;;;;;;;5408714;26;20028;-74
2024/04/10 04:10:33;;;;;;;10.35;5.88;;;;;;;;;;5407537;26;20046;-73
2024/04/10 04:13:05;;;;;;;10.80;6.78;;;;;;;;;;5405944;26;20020;-73
2024/04/10 04:15:38;;;;;;;9.43;6.70;;;;;;;;;;5407001;26;20031;-75
2024/04/10 04:18:09;;;;;;;11.00;6.93;;;;;;;;;;5408149;26;20031;-74
2024/04/10 04:20:39;;;;;;;13.30;7.03;;;;;;;;;;5407626;26;20023;-74
2024/04/10 04:23:10;;;;;;;9.77;7.30;;;;;;;;;;5407537;26;20024;-74
2024/04/10 04:25:40;;;;;;;13.00;7.32;;;;;;;;;;5405376;26;20291;-73
2024/04/10 04:28:10;;;;;;;8.43;7.25;;;;;;;;;;5407500;26;20023;-73
2024/04/10 04:30:48;;;;;;;9.13;7.18;;;;;;;;;;5407232;26;20027;-73
2024/04/10 04:33:20;;;;;;;9.15;6.65;;;;;;;;;;5407390;26;20023;-73
2024/04/10 04:35:51;;;;;;;9.68;7.35;;;;;;;;;;5406984;26;20027;-74
2024/04/10 04:38:21;;;;;;;9.57;8.00;;;;;;;;;;5407784;26;20024;-74
2024/04/10 04:40:52;;;;;;;11.73;7.93;;;;;;;;;;5409520;26;20455;-73
2024/04/10 04:43:23;;;;;;;9.88;7.20;;;;;;;;;;5407585;26;20043;-73
2024/04/10 04:45:56;;;;;;;15.57;7.53;;;;;;;;;;5406283;26;19998;-73
2024/04/10 04:48:26;;;;;;;10.00;7.57;;;;;;;;;;5406933;26;20024;-73
2024/04/10 04:50:56;;;;;;;15.00;7.65;;;;;;;;;;5405069;26;20034;-74
2024/04/10 04:53:27;;;;;;;10.88;7.28;;;;;;;;;;5406855;26;20040;-74
2024/04/10 04:55:59;;;;;;;14.15;7.75;;;;;;;;;;5406460;26;20035;-74
2024/04/10 04:58:30;;;;;;;9.77;7.68;;;;;;;;;;5406738;26;20023;-73
2024/04/10 05:01:01;;;;;;;12.70;8.13;;;;;;;;;;5407627;26;20031;-74
2024/04/10 05:06:22;;;;;;;11.60;8.05;;;;;;;;;;5406775;26;20462;-74
2024/04/10 05:08:52;;;;;;;15.18;8.57;;;;;;;;;;5407565;26;20027;-74
2024/04/10 05:11:23;;;;;;;10.43;7.97;;;;;;;;;;5407026;26;20027;-74
2024/04/10 05:13:53;;;;;;;13.15;8.68;;;;;;;;;;5406427;26;20134;-74
2024/04/10 05:16:24;;;;;;;12.75;8.23;;;;;;;;;;5407211;26;20023;-74
2024/04/10 05:18:55;;;;;;;11.60;8.43;;;;;;;;;;5404970;26;20036;-74
2024/04/10 05:21:25;;;;;;;17.55;8.50;;;;;;;;;;5406464;26;20028;-74
2024/04/10 05:23:55;;;;;;;12.93;8.15;;;;;;;;;;5406278;26;20027;-74
2024/04/10 05:26:25;;;;;;;10.70;7.88;;;;;;;;;;5406841;26;20032;-74
2024/04/10 05:28:57;;;;;;;17.25;7.80;;;;;;;;;;5406653;26;20039;-74
2024/04/10 05:31:27;;;;;;;10.60;7.85;;;;;;;;;;5406329;26;20019;-74
2024/04/10 05:33:57;;;;;;;12.82;8.00;;;;;;;;;;5406455;26;20544;-73
2024/04/10 05:36:27;;;;;;;11.02;7.95;;;;;;;;;;5406157;26;20478;-73
2024/04/10 05:39:01;;;;;;;10.65;8.10;;;;;;;;;;5406791;26;20027;-73
2024/04/10 05:41:33;;;;;;;10.15;7.57;;;;;;;;;;5405896;26;20048;-73
2024/04/10 05:44:04;;;;;;;9.82;8.05;;;;;;;;;;5406057;26;20461;-75
2024/04/10 05:46:35;;;;;;;11.27;8.68;;;;;;;;;;5406492;26;20499;-74
2024/04/10 05:49:10;;;;;;;16.02;8.40;;;;;;;;;;5406087;26;20462;-74
2024/04/10 05:51:42;;;;;;;13.00;8.27;;;;;;;;;;5406171;26;20019;-73
2024/04/10 05:54:12;;;;;;;12.75;7.78;;;;;;;;;;5406189;26;20058;-74
2024/04/10 05:56:43;;;;;;;13.60;8.77;;;;;;;;;;5405475;26;20027;-74
2024/04/10 05:59:12;;;;;;;16.58;9.73;;;;;;;;;;5405131;26;20020;-74
2024/04/10 06:01:44;;;;;;;18.23;11.05;;;;;;;;;;5406547;26;20518;-74
2024/04/10 06:04:15;;;;;;;16.50;10.13;;;;;;;;;;5407300;26;20027;-74
2024/04/10 06:06:46;;;;;;;18.48;11.52;;;;;;;;;;5403905;26;19996;-74
2024/04/10 06:09:17;;;;;;;17.27;10.00;;;;;;;;;;5406950;26;20031;-74
2024/04/10 06:11:48;;;;;;;16.92;10.65;;;;;;;;;;5405357;26;20031;-74
2024/04/10 06:14:18;;;;;;;17.92;9.75;;;;;;;;;;5405520;26;20042;-75
2024/04/10 06:18:43;;;;;;;17.15;10.25;;;;;;;;;;5459739;26;20376;-74
2024/04/10 06:21:14;;;;;;;14.57;10.20;;;;;;;;;;5424471;26;20023;-73
2024/04/10 06:23:46;;;;;;;17.08;9.98;;;;;;;;;;5423915;26;20019;-74
2024/04/10 06:26:17;;;;;;;16.55;9.23;;;;;;;;;;5423928;26;20746;-73
2024/04/10 06:28:48;;;;;;;15.50;9.18;;;;;;;;;;5423703;26;20020;-73
2024/04/10 06:31:18;;;;;;;12.98;8.68;;;;;;;;;;5424682;26;20024;-73
2024/04/10 06:33:50;;;;;;;16.58;9.88;;;;;;;;;;5424529;26;20370;-73
2024/04/10 06:36:21;;;;;;;14.55;8.98;;;;;;;;;;5424296;26;20027;-73
2024/04/10 06:38:52;;;;;;;19.60;10.07;;;;;;;;;;5424578;26;20047;-73
2024/04/10 06:41:22;;;;;;;13.38;9.57;;;;;;;;;;5421472;26;20019;-73
2024/04/10 06:43:53;;;;;;;13.23;8.80;;;;;;;;;;5424036;26;20024;-74
2024/04/10 06:46:24;;;;;;;14.35;9.48;;;;;;;;;;5424469;26;20031;-73
2024/04/10 06:48:56;;;;;;;15.88;10.30;;;;;;;;;;5422448;26;20650;-73
2024/04/10 06:51:26;;;;;;;15.65;9.90;;;;;;;;;;5421796;26;20032;-74
2024/04/10 06:53:57;;;;;;;18.13;8.77;;;;;;;;;;5423602;26;20027;-73
2024/04/10 06:56:29;;;;;;;12.38;8.98;;;;;;;;;;5423666;26;20023;-75
2024/04/10 06:59:00;;;;;;;13.65;9.60;;;;;;;;;;5424111;26;20027;-74
2024/04/10 07:01:31;;;;;;;17.25;9.27;;;;;;;;;;5391156;26;19996;-73
2024/04/10 07:04:01;;;;;;;12.10;8.93;;;;;;;;;;5385962;26;20070;-74
2024/04/10 07:06:31;;;;;;;16.75;9.65;;;;;;;;;;5388568;26;20024;-73
2024/04/10 07:09:02;;;;;;;14.10;8.93;;;;;;;;;;5387211;26;20024;-74
2024/04/10 07:11:33;;;;;;;15.73;9.38;;;;;;;;;;5388249;26;20371;-73
2024/04/10 07:14:03;;;;;;;14.20;8.95;;;;;;;;;;5388048;26;20363;-72
2024/04/10 07:16:33;;;;;;;14.07;8.93;;;;;;;;;;5387366;26;20024;-74
2024/04/10 07:19:05;;;;;;;13.32;8.63;;;;;;;;;;5387583;26;20007;-80
2024/04/10 07:21:39;;;;;;;16.05;8.73;;;;;;;;;;5387739;26;20028;-73
2024/04/10 07:24:09;;;;;;;14.35;8.80;;;;;;;;;;5387793;26;20082;-73
2024/04/10 07:26:40;;;;;;;13.75;8.75;;;;;;;;;;5389174;26;20024;-73
2024/04/10 07:29:11;;;;;;;11.18;8.32;;;;;;;;;;5376821;26;20020;-73
2024/04/10 07:31:42;;;;;;;14.98;9.40;;;;;;;;;;5373152;26;20024;-73
2024/04/10 07:34:14;;;;;;;14.38;8.65;;;;;;;;;;5372422;26;20029;-74
2024/04/10 07:36:45;;;;;;;13.82;8.43;;;;;;;;;;5372010;26;20024;-73
2024/04/10 07:39:19;;;;;;;13.35;9.23;;;;;;;;;;5372348;26;20032;-74
2024/04/10 07:41:50;;;;;;;14.98;8.48;;;;;;;;;;5371964;26;20512;-74
2024/04/10 07:44:21;;;;;;;14.98;8.32;;;;;;;;;;5372862;26;20028;-73
2024/04/10 07:46:52;;;;;;;16.05;8.68;;;;;;;;;;5372515;26;20378;-73
2024/04/10 07:49:23;;;;;;;15.30;8.35;;;;;;;;;;5372229;26;20020;-74
2024/04/10 07:51:54;;;;;;;13.43;8.13;;;;;;;;;;5373035;26;20036;-73
2024/04/10 07:54:24;;;;;;;12.35;8.38;;;;;;;;;;5372414;26;20024;-73
2024/04/10 07:56:54;;;;;;;16.48;8.13;;;;;;;;;;5372429;26;20563;-73
2024/04/10 07:59:24;;;;;;;14.18;8.73;;;;;;;;;;5372229;26;20024;-72
2024/04/10 08:01:55;;;;;;;16.20;9.15;;;;;;;;;;5372760;26;20040;-73
2024/04/10 08:04:26;;;;;;;14.13;8.55;;;;;;;;;;5371532;26;20569;-73
2024/04/10 08:06:57;;;;;;;13.48;8.10;;;;;;;;;;5371671;26;20028;-73
2024/04/10 08:09:26;;;;;;;12.75;8.60;;;;;;;;;;5370648;26;19996;-73
2024/04/10 08:11:57;;;;;;;15.30;9.18;;;;;;;;;;5372276;26;20471;-73
2024/04/10 08:14:29;;;;;;;14.00;8.93;;;;;;;;;;5372612;26;20483;-73
2024/04/10 08:17:00;;;;;;;14.95;10.00;;;;;;;;;;5372344;26;20020;-73
2024/04/10 08:19:30;;;;;;;13.98;9.25;;;;;;;;;;5372424;26;20350;-73
2024/04/10 08:22:01;;;;;;;13.30;8.52;;;;;;;;;;5371283;26;20040;-74
2024/04/10 08:24:32;;;;;;;14.25;8.95;;;;;;;;;;5372429;26;20036;-74
2024/04/10 08:27:03;;;;;;;15.30;8.70;;;;;;;;;;5371013;26;20111;-73
2024/04/10 08:29:34;;;;;;;16.23;8.48;;;;;;;;;;5370195;26;20025;-73
2024/04/10 08:32:06;;;;;;;15.02;8.63;;;;;;;;;;5370498;26;20480;-74
2024/04/10 08:34:37;;;;;;;13.18;8.23;;;;;;;;;;5371342;26;20024;-74
2024/04/10 08:37:08;;;;;;;16.30;8.55;;;;;;;;;;5371431;26;20127;-75
2024/04/10 08:39:39;;;;;;;14.75;8.43;;;;;;;;;;5370710;26;19996;-72
2024/04/10 08:42:12;;;;;;;16.23;9.07;;;;;;;;;;5371413;26;20041;-73
2024/04/10 08:44:44;;;;;;;15.68;8.88;;;;;;;;;;5371728;26;20020;-73
2024/04/10 08:47:16;;;;;;;16.02;8.70;;;;;;;;;;5371681;26;20033;-72
2024/04/10 08:49:47;;;;;;;12.98;8.43;;;;;;;;;;5371277;26;20024;-73
2024/04/10 08:52:20;;;;;;;15.57;8.75;;;;;;;;;;5371147;26;20387;-73
2024/04/10 08:54:50;;;;;;;13.38;8.40;;;;;;;;;;5371848;26;20024;-74
2024/04/10 08:57:22;;;;;;;13.52;8.88;;;;;;;;;;5370537;26;20132;-73
2024/04/10 08:59:53;;;;;;;12.05;8.02;;;;;;;;;;5370845;26;20036;-73
2024/04/10 09:02:23;;;;;;;12.75;8.52;;;;;;;;;;5371178;26;20020;-74
2024/04/10 09:04:53;;;;;;;14.32;8.13;;;;;;;;;;5371459;26;20377;-73
2024/04/10 09:07:24;;;;;;;12.85;8.23;;;;;;;;;;5369619;26;20028;-73
2024/04/10 09:09:55;;;;;;;16.45;8.90;;;;;;;;;;5371658;26;20993;-73
2024/04/10 09:12:25;;;;;;;15.93;9.23;;;;;;;;;;5371417;26;20033;-73
2024/04/10 09:15:09;;;;;;;11.45;8.98;;;;;;;;;;5369886;26;20031;-73
2024/04/10 09:17:40;;;;;;;13.18;8.75;;;;;;;;;;5370857;26;20028;-73
2024/04/10 09:20:15;;;;;;;12.68;8.52;;;;;;;;;;5371078;26;20028;-75
2024/04/10 09:23:04;;;;;;;13.73;9.25;;;;;;;;;;5371238;26;20047;-73
2024/04/10 09:25:37;;;;;;;15.93;9.27;;;;;;;;;;5370705;26;20024;-76
2024/04/10 09:28:09;;;;;;;13.70;7.80;;;;;;;;;;5370936;26;20024;-74
2024/04/10 09:30:39;;;;;;;15.43;10.07;;;;;;;;;;5370433;26;20020;-74
2024/04/10 09:33:10;;;;;;;17.88;9.15;;;;;;;;;;5371016;26;21085;-74
2024/04/10 09:35:41;;;;;;;23.40;10.23;;;;;;;;;;5371097;26;20020;-73
2024/04/10 09:38:12;;;;;;;14.32;9.73;;;;;;;;;;5369641;26;20020;-74
2024/04/10 09:40:51;;;;;;;20.55;11.32;;;;;;;;;;5371806;26;20024;-73
2024/04/10 09:43:28;;;;;;;17.25;9.80;;;;;;;;;;5370277;26;20020;-73
2024/04/10 09:46:03;;;;;;;20.23;10.27;;;;;;;;;;5370300;26;20028;-75
2024/04/10 09:48:35;;;;;;;16.10;10.35;;;;;;;;;;5370246;26;20471;-74
2024/04/10 09:51:10;;;;;;;18.75;10.60;;;;;;;;;;5369336;26;20470;-75
2024/04/10 09:53:40;;;;;;;20.35;10.68;;;;;;;;;;5370608;26;20039;-74
2024/04/10 09:56:11;;;;;;;19.80;11.07;;;;;;;;;;5371117;26;20039;-75
2024/04/10 09:58:42;;;;;;;24.70;10.35;;;;;;;;;;5370956;26;20052;-77
2024/04/10 10:01:13;;;;;;;18.73;10.85;;;;;;;;;;5370483;26;20560;-75
2024/04/10 10:03:43;;;;;;;26.98;15.18;;;;;;;;;;5370535;26;20360;-73
2024/04/10 10:06:15;;;;;;;18.60;10.23;;;;;;;;;;5370941;26;20020;-73
2024/04/10 10:08:53;;;;;;;18.35;10.48;;;;;;;;;;5370332;26;20375;-73
2024/04/10 10:11:25;;;;;;;13.82;10.38;;;;;;;;;;5370859;26;20029;-74
2024/04/10 10:14:00;;;;;;;18.02;10.18;;;;;;;;;;5370573;26;20053;-74
2024/04/10 10:16:34;;;;;;;17.60;10.80;;;;;;;;;;5369904;26;20020;-73
2024/04/10 10:19:05;;;;;;;28.55;11.35;;;;;;;;;;5370072;26;21053;-73
2024/04/10 10:21:37;;;;;;;14.85;9.75;;;;;;;;;;5370000;26;20032;-74
2024/04/10 10:24:08;;;;;;;14.93;9.23;;;;;;;;;;5370413;26;20456;-75
2024/04/10 10:26:39;;;;;;;16.30;9.00;;;;;;;;;;5370002;26;20052;-74
2024/04/10 10:29:10;;;;;;;14.57;9.30;;;;;;;;;;5369917;26;20467;-73
2024/04/10 10:31:46;;;;;;;21.33;10.60;;;;;;;;;;5369388;26;20040;-73
2024/04/10 10:34:23;;;;;;;20.48;11.25;;;;;;;;;;5369717;26;20024;-73
2024/04/10 10:36:54;;;;;;;23.20;11.52;;;;;;;;;;5381639;26;20490;-74
2024/04/10 10:39:27;;;;;;;19.50;11.00;;;;;;;;;;5405774;26;20000;-73
2024/04/10 10:42:06;;;;;;;16.90;10.27;;;;;;;;;;5405627;26;20023;-73
2024/04/10 10:44:36;;;;;;;14.23;10.27;;;;;;;;;;5407766;26;20647;-74
2024/04/10 10:47:11;;;;;;;15.00;10.07;;;;;;;;;;5404865;26;20019;-75
2024/04/10 10:49:43;;;;;;;27.00;11.70;;;;;;;;;;5404981;26;20518;-74
2024/04/10 10:52:13;;;;;;;17.52;10.05;;;;;;;;;;5405190;26;20020;-74
2024/04/10 10:54:43;;;;;;;16.80;10.18;;;;;;;;;;5404791;26;20027;-75
2024/04/10 10:57:17;;;;;;;16.95;10.18;;;;;;;;;;5404741;26;20024;-75
2024/04/10 10:59:48;;;;;;;14.38;10.25;;;;;;;;;;5403380;26;20021;-76
2024/04/10 11:02:20;;;;;;;16.48;9.38;;;;;;;;;;5404780;26;20020;-73
2024/04/10 11:04:53;;;;;;;18.55;9.90;;;;;;;;;;5406897;26;20035;-75
2024/04/10 11:07:24;;;;;;;17.00;9.32;;;;;;;;;;5408090;26;20023;-73
2024/04/10 11:10:06;;;;;;;16.42;9.50;;;;;;;;;;5407835;26;20039;-73
2024/04/10 11:12:37;;;;;;;19.27;9.50;;;;;;;;;;5407284;26;20028;-73
2024/04/10 11:15:12;;;;;;;22.08;11.60;;;;;;;;;;5405019;26;20469;-80
2024/04/10 11:17:45;;;;;;;16.60;9.75;;;;;;;;;;5407931;26;20019;-77
2024/04/10 11:20:19;;;;;;;17.02;9.63;;;;;;;;;;5408162;26;20043;-73
2024/04/10 11:23:07;;;;;;;21.58;9.60;;;;;;;;;;5408053;26;20023;-75
2024/04/10 11:25:39;;;;;;;17.52;11.20;;;;;;;;;;5408232;26;20021;-75
2024/04/10 11:28:11;;;;;;;13.55;8.95;;;;;;;;;;5405885;26;20035;-75
2024/04/10 11:30:42;;;;;;;15.77;9.57;;;;;;;;;;5407564;26;20123;-77
2024/04/10 11:33:13;;;;;;;13.68;9.65;;;;;;;;;;5407969;26;20040;-74
2024/04/10 11:35:44;;;;;;;16.52;9.75;;;;;;;;;;5408084;26;20028;-74
2024/04/10 11:38:14;;;;;;;21.25;10.25;;;;;;;;;;5407824;26;20027;-75
2024/04/10 11:40:45;;;;;;;15.85;10.43;;;;;;;;;;5407687;26;19996;-74
2024/04/10 11:43:16;;;;;;;15.68;9.20;;;;;;;;;;5407786;26;20467;-75
2024/04/10 11:45:49;;;;;;;16.25;10.32;;;;;;;;;;5408704;26;20023;-75
2024/04/10 11:48:19;;;;;;;13.65;8.70;;;;;;;;;;5408565;26;20035;-78
2024/04/10 11:50:50;;;;;;;15.10;8.77;;;;;;;;;;5408200;26;20024;-74
2024/04/10 11:53:22;;;;;;;21.00;9.57;;;;;;;;;;5407744;26;20023;-74
2024/04/10 11:55:55;;;;;;;16.50;8.70;;;;;;;;;;5406575;26;20019;-74
2024/04/10 11:58:26;;;;;;;24.10;8.55;;;;;;;;;;5407243;26;20031;-75
2024/04/10 12:00:56;;;;;;;15.52;8.95;;;;;;;;;;5406724;26;20486;-75
2024/04/10 12:03:27;;;;;;;17.15;8.90;;;;;;;;;;5407232;26;20039;-74
2024/04/10 12:06:04;;;;;;;16.60;8.63;;;;;;;;;;5405363;26;20031;-76
2024/04/10 12:08:36;;;;;;;9.15;6.85;;;;;;;;;;5407054;26;20466;-79
2024/04/10 12:11:07;;;;;;;4.05;2.13;;;;;;;;;;5403518;26;20006;-74
2024/04/10 12:13:41;;;;;;;1.95;1.40;;;;;;;;;;5406870;26;20355;-73
2024/04/10 12:16:11;;;;;;;4.03;1.40;;;;;;;;;;5406393;26;20023;-73
2024/04/10 12:18:41;;;;;;;2.45;1.20;;;;;;;;;;5407276;26;20467;-75
2024/04/10 12:21:12;;;;;;;1.23;1.10;;;;;;;;;;5407568;26;20784;-74
2024/04/10 12:23:46;;;;;;;1.52;1.05;;;;;;;;;;5407818;26;20023;-73
2024/04/10 12:26:18;;;;;;;1.27;0.95;;;;;;;;;;5406032;26;20378;-74
2024/04/10 12:28:48;;;;;;;1.40;1.00;;;;;;;;;;5407563;26;20035;-74
2024/04/10 12:31:18;;;;;;;4.10;1.20;;;;;;;;;;5407098;26;20032;-74
2024/04/10 12:33:51;;;;;;;1.63;1.05;;;;;;;;;;5406571;26;20039;-73
2024/04/10 12:39:12;;;;;;;1.63;1.30;;;;;;;;;;5407103;26;20040;-75
2024/04/10 12:41:42;;;;;;;3.53;1.50;;;;;;;;;;5406736;26;20031;-74
2024/04/10 12:44:19;;;;;;;1.90;1.50;;;;;;;;;;5406918;26;20020;-74
2024/04/10 12:46:55;;;;;;;4.22;1.33;;;;;;;;;;5406751;26;20011;-75
2024/04/10 12:49:28;;;;;;;1.15;1.05;;;;;;;;;;5406384;26;20481;-74
2024/04/10 12:51:59;;;;;;;1.15;1.05;;;;;;;;;;5434550;26;20023;-74
2024/04/10 12:54:31;;;;;;;2.55;1.02;;;;;;;;;;5408546;26;20035;-74
2024/04/10 12:57:04;;;;;;;2.45;1.02;;;;;;;;;;5409440;26;20020;-74
2024/04/10 12:59:39;;;;;;;0.73;0.70;;;;;;;;;;5406091;26;20023;-75
2024/04/10 13:02:17;;;;;;;1.33;0.90;;;;;;;;;;5410117;26;20360;-76
2024/04/10 13:05:01;;;;;;;0.70;0.68;;;;;;;;;;5407732;26;20040;-75
2024/04/10 13:07:36;;;;;;;0.82;0.80;;;;;;;;;;5406475;26;20023;-75
2024/04/10 13:10:23;;;;;;;2.42;0.60;;;;;;;;;;5383404;26;20443;-75
2024/04/10 13:12:56;;;;;;;1.70;0.70;;;;;;;;;;5406806;26;20031;-75
2024/04/10 13:15:30;;;;;;;3.58;0.63;;;;;;;;;;5405501;26;20044;-75
2024/04/10 13:18:02;;;;;;;2.97;0.50;;;;;;;;;;5406089;26;20936;-74
2024/04/10 13:20:34;;;;;;;1.08;0.52;;;;;;;;;;5406486;26;20394;-76
2024/04/10 13:23:05;;;;;;;3.33;0.63;;;;;;;;;;5406469;26;20358;-75
2024/04/10 13:25:35;;;;;;;0.60;0.60;;;;;;;;;;5406055;26;20501;-75
2024/04/10 13:28:09;;;;;;;2.40;0.70;;;;;;;;;;5404774;26;20467;-73
2024/04/10 13:31:24;;;;;;;3.08;0.90;;;;;;;;;;5406046;26;20019;-76
2024/04/10 13:34:01;;;;;;;4.30;0.80;;;;;;;;;;5406122;26;20367;-76
2024/04/10 13:36:31;;;;;;;0.52;0.52;;;;;;;;;;5406379;26;20525;-75
2024/04/10 13:39:03;;;;;;;6.55;0.77;;;;;;;;;;5406224;26;20035;-74
2024/04/10 13:41:35;;;;;;;1.08;0.60;;;;;;;;;;5406378;26;20028;-75
2024/04/10 13:44:06;;;;;;;1.42;0.60;;;;;;;;;;5405823;26;20498;-75
2024/04/10 13:46:40;;;;;;;1.58;0.52;;;;;;;;;;5404847;26;20024;-76
2024/04/10 13:49:13;;;;;;;0.73;0.43;;;;;;;;;;5405913;26;20024;-75
2024/04/10 13:51:45;;;;;;;0.93;0.50;;;;;;;;;;5405810;26;20027;-76
2024/04/10 13:54:16;;;;;;;0.70;0.43;;;;;;;;;;5402386;26;20474;-75
2024/04/10 13:56:45;;;;;;;0.35;0.35;;;;;;;;;;5405772;26;20023;-76
2024/04/10 13:59:17;;;;;;;2.30;0.52;;;;;;;;;;5405949;26;20031;-76
2024/04/10 14:01:47;;;;;;;0.73;0.50;;;;;;;;;;5405360;26;20005;-76
2024/04/10 14:04:18;;;;;;;0.75;0.75;;;;;;;;;;5406247;26;20023;-75
2024/04/10 14:06:50;;;;;;;2.35;0.70;;;;;;;;;;5405868;26;20031;-76
2024/04/10 14:09:21;;;;;;;4.88;0.60;;;;;;;;;;5405670;26;20477;-76
2024/04/10 14:11:52;;;;;;;0.95;0.45;;;;;;;;;;5433444;26;20024;-76
2024/04/10 14:14:22;;;;;;;1.52;0.57;;;;;;;;;;5405083;26;20024;-78
2024/04/10 14:16:54;;;;;;;1.92;0.70;;;;;;;;;;5404901;26;20462;-75
2024/04/10 14:19:31;;;;;;;1.45;0.63;;;;;;;;;;5405244;26;20019;-78
2024/04/10 14:22:02;;;;;;;6.57;0.68;;;;;;;;;;5405295;26;20477;-74
2024/04/10 14:24:33;;;;;;;0.55;0.47;;;;;;;;;;5405800;26;20104;-75
2024/04/10 14:27:03;;;;;;;0.95;0.52;;;;;;;;;;5405858;26;20767;-76
2024/04/10 14:29:33;;;;;;;3.25;0.70;;;;;;;;;;5405456;26;20032;-76
2024/04/10 14:32:06;;;;;;;1.60;0.60;;;;;;;;;;5403373;26;21071;-78
2024/04/10 14:34:37;;;;;;;2.22;0.63;;;;;;;;;;5405109;26;20020;-74
2024/04/10 14:37:08;;;;;;;1.70;0.70;;;;;;;;;;5405225;26;20027;-75
2024/04/10 14:39:38;;;;;;;1.48;0.57;;;;;;;;;;5409076;26;20691;-74
2024/04/10 14:42:09;;;;;;;11.93;1.05;;;;;;;;;;5436191;26;20431;-75
2024/04/10 14:44:42;;;;;;;1.13;0.80;;;;;;;;;;5408982;26;20027;-75
2024/04/10 14:47:13;;;;;;;3.28;0.70;;;;;;;;;;5408299;26;20458;-75
2024/04/10 14:49:45;;;;;;;1.95;0.63;;;;;;;;;;5435808;26;20006;-75
2024/04/10 14:52:15;;;;;;;4.32;1.00;;;;;;;;;;5408242;26;20766;-75
2024/04/10 14:54:50;;;;;;;2.85;0.65;;;;;;;;;;5408975;26;20565;-76
2024/04/10 14:57:27;;;;;;;1.08;0.60;;;;;;;;;;5434970;26;20462;-79
2024/04/10 14:59:59;;;;;;;3.08;0.50;;;;;;;;;;5408602;26;20490;-76
2024/04/10 15:02:30;;;;;;;0.93;0.60;;;;;;;;;;5407825;26;20493;-76
2024/04/10 15:05:10;;;;;;;0.45;0.45;;;;;;;;;;5433396;26;20006;-74
2024/04/10 15:08:06;;;;;;;3.50;0.60;;;;;;;;;;5407972;26;20051;-76
2024/04/10 15:10:46;;;;;;;0.50;0.50;;;;;;;;;;5408734;26;20028;-74
2024/04/10 15:13:22;;;;;;;1.40;0.55;;;;;;;;;;5407025;26;20035;-74